Furman, Alabama
Current Conditions -  °F | °C
As of 5:56 PM on Friday 24 Oct 2014 (Local Time) from KPRN Reporting Station
Clear Clear  
Wind Chill: 71°   Ceiling: Unl
Heat Index: 71°   Visibility: 10mi
Dew Point: 44°   Wind: 3mph
Humidity: 38%   Direction: 330°NNW
Pressure: 30.01"   Gusts: NA
Location:  32.01°N, 86.97°W
Report Text: KPRN 242256Z AUTO 33003KT 10SM CLR 22/07 A3001 RMK AO2 SLP161 T02170067
Loading
Personal Weather Stations






























Interactive Weather Map
Tropical Storm Tracking
New forecast layout! Learn more

10-Day Weather Forecast

Advertisements
Track Severe Weather on mobile